Time;durP1;ratioP1;P1;durP2;ratioP2;P2;SDS_P1;SDS_P2;PMS_P1;PMS_P2;Temp;Humidity;BMP_temperature;BMP_pressure;BME280_temperature;BME280_humidity;BME280_pressure;Samples;Min_cycle;Max_cycle;Signal;HPM_P1;HPM_P2
2023/03/13 00:00:44;;;;;;;15.15;5.50;;;5.50;99.90;;;;;;6257711;22;20093;-87
2023/03/13 00:03:31;;;;;;;14.23;5.22;;;5.50;1.00;;;;;;6267541;22;20091;-90
2023/03/13 00:06:18;;;;;;;22.67;5.38;;;5.50;1.00;;;;;;6277359;22;20073;-89
2023/03/13 00:09:11;;;;;;;18.40;5.70;;;5.50;1.70;;;;;;6280569;22;20038;-89
2023/03/13 00:11:59;;;;;;;24.38;6.10;;;5.40;99.90;;;;;;6258452;22;20023;-89
2023/03/13 00:14:48;;;;;;;26.50;5.82;;;5.50;99.90;;;;;;6258267;22;20027;-89
2023/03/13 00:17:36;;;;;;;20.00;4.95;;;5.50;99.90;;;;;;6255561;22;20027;-89
2023/03/13 00:20:27;;;;;;;21.02;5.65;;;5.60;99.90;;;;;;6255067;22;20051;-90
2023/03/13 00:23:14;;;;;;;20.30;5.20;;;5.80;99.90;;;;;;6254351;22;20078;-88
2023/03/13 00:26:05;;;;;;;20.50;4.25;;;5.90;99.90;;;;;;6256861;22;20031;-87
2023/03/13 00:28:53;;;;;;;21.17;4.80;;;6.20;99.90;;;;;;6255272;22;20046;-88
2023/03/13 00:31:40;;;;;;;25.23;4.93;;;6.60;1.00;;;;;;6257301;22;20024;-87
2023/03/13 00:34:27;;;;;;;26.10;7.30;;;6.80;99.90;;;;;;6254823;22;20027;-87
2023/03/13 00:37:15;;;;;;;21.98;5.82;;;6.90;99.90;;;;;;6259285;22;20096;-88
2023/03/13 00:40:05;;;;;;;18.65;4.70;;;6.80;79.00;;;;;;6257317;22;20098;-88
2023/03/13 00:42:52;;;;;;;20.23;4.28;;;6.80;1.00;;;;;;6277572;22;20051;-88
2023/03/13 00:45:42;;;;;;;20.30;4.55;;;6.80;1.00;;;;;;6276524;22;20020;-90
2023/03/13 00:48:30;;;;;;;18.58;4.13;;;6.90;1.00;;;;;;6253144;22;20019;-87
2023/03/13 00:51:18;;;;;;;15.35;3.97;;;7.00;1.00;;;;;;6292954;22;20027;-90
2023/03/13 00:54:07;;;;;;;13.95;4.05;;;7.10;99.90;;;;;;6277036;22;20403;-86
2023/03/13 00:56:55;;;;;;;17.50;4.00;;;7.20;99.90;;;;;;6255980;22;20028;-88
2023/03/13 00:59:42;;;;;;;17.15;3.47;;;7.20;99.90;;;;;;6254345;22;20085;-87
2023/03/13 01:02:29;;;;;;;13.70;3.05;;;7.40;99.90;;;;;;6254267;22;20027;-89
2023/03/13 01:05:17;;;;;;;14.73;3.97;;;7.50;99.90;;;;;;6276984;22;20148;-87
2023/03/13 01:08:07;;;;;;;17.23;3.70;;;7.50;99.90;;;;;;6276360;22;20031;-87
2023/03/13 01:11:04;;;;;;;19.98;3.22;;;7.60;99.90;;;;;;6256172;22;20040;-88
2023/03/13 01:13:56;;;;;;;12.48;3.28;;;7.70;99.90;;;;;;6277645;22;20103;-87
2023/03/13 01:16:44;;;;;;;8.40;2.92;;;7.80;99.90;;;;;;6277611;22;20015;-87
2023/03/13 01:19:31;;;;;;;16.88;3.60;;;7.80;99.90;;;;;;6278515;22;20110;-90
2023/03/13 01:22:27;;;;;;;12.45;2.92;;;7.90;99.90;;;;;;6277748;22;20043;-88
2023/03/13 01:25:15;;;;;;;9.45;2.58;;;7.90;99.90;;;;;;6278096;22;20400;-88
2023/03/13 01:28:03;;;;;;;8.68;2.80;;;8.00;77.70;;;;;;6256633;22;20043;-88
2023/03/13 01:30:51;;;;;;;12.15;2.60;;;8.10;50.40;;;;;;6277110;22;20054;-87
2023/03/13 01:33:38;;;;;;;14.00;3.28;;;8.20;21.10;;;;;;6278526;22;20030;-89
2023/03/13 01:36:27;;;;;;;13.15;2.70;;;8.30;1.00;;;;;;6279862;22;20081;-88
2023/03/13 01:39:14;;;;;;;8.45;2.90;;;8.30;1.00;;;;;;6288758;22;20024;-88
2023/03/13 01:42:07;;;;;;;10.38;2.85;;;8.30;1.00;;;;;;6281381;22;20042;-89
2023/03/13 01:44:56;;;;;;;9.95;3.45;;;8.30;1.00;;;;;;6288576;22;20046;-87
2023/03/13 01:47:44;;;;;;;14.82;3.13;;;8.30;1.00;;;;;;6289127;22;20381;-87
2023/03/13 01:50:34;;;;;;;13.18;2.72;;;8.30;1.00;;;;;;6291894;22;20036;-88
2023/03/13 01:53:23;;;;;;;9.32;2.78;;;8.40;1.00;;;;;;6290581;22;20053;-89
2023/03/13 01:56:17;;;;;;;10.07;2.40;;;8.30;1.00;;;;;;6288553;22;20161;-87
2023/03/13 01:59:08;;;;;;;10.02;2.45;;;8.40;1.00;;;;;;6271039;22;20028;-88
2023/03/13 02:01:59;;;;;;;13.20;2.80;;;8.30;1.00;;;;;;6291739;22;20043;-86
2023/03/13 02:04:49;;;;;;;8.30;2.20;;;8.30;1.00;;;;;;6290211;22;20043;-87
2023/03/13 02:07:46;;;;;;;10.15;2.92;;;8.30;1.00;;;;;;6251853;22;20050;-85
2023/03/13 02:10:40;;;;;;;10.57;2.88;;;8.40;1.00;;;;;;6268998;22;20054;-88
2023/03/13 02:13:28;;;;;;;7.63;2.83;;;8.40;1.00;;;;;;6272121;22;20081;-88
2023/03/13 02:16:17;;;;;;;9.70;2.00;;;8.40;1.00;;;;;;6290663;22;20110;-89
2023/03/13 02:19:22;;;;;;;10.85;2.45;;;8.40;1.00;;;;;;6291350;22;20047;-89
2023/03/13 02:22:34;;;;;;;9.02;2.28;;;8.50;1.00;;;;;;6272622;22;20024;-88
2023/03/13 02:25:22;;;;;;;;;;;8.60;1.00;;;;;;6299451;22;20008;-86
2023/03/13 02:28:12;;;;;;;10.90;2.28;;;8.70;1.00;;;;;;6297067;22;19922;-87
2023/03/13 02:31:00;;;;;;;10.90;2.25;;;8.70;1.00;;;;;;6290624;22;20058;-87
2023/03/13 02:33:47;;;;;;;7.07;1.60;;;8.70;1.00;;;;;;6296605;22;20024;-89
2023/03/13 02:36:34;;;;;;;7.32;1.77;;;8.70;1.00;;;;;;6304925;22;20054;-86
2023/03/13 02:39:25;;;;;;;7.70;2.30;;;8.80;1.00;;;;;;6282815;22;20042;-87
2023/03/13 02:42:16;;;;;;;5.93;2.75;;;8.80;1.00;;;;;;6281656;22;20282;-87
2023/03/13 02:45:05;;;;;;;6.55;1.92;;;8.90;1.00;;;;;;6281878;22;20125;-87
2023/03/13 02:47:53;;;;;;;4.28;1.70;;;8.90;1.00;;;;;;6301737;22;20034;-87
2023/03/13 02:50:40;;;;;;;5.35;2.08;;;8.90;1.00;;;;;;6281127;22;20023;-88
2023/03/13 02:53:29;;;;;;;4.78;1.70;;;9.00;1.00;;;;;;6280973;22;20012;-86
2023/03/13 02:56:23;;;;;;;7.70;1.50;;;8.90;1.00;;;;;;6280078;22;20015;-87
2023/03/13 02:59:11;;;;;;;5.72;1.73;;;8.90;1.00;;;;;;6302967;22;20020;-86
2023/03/13 03:01:58;;;;;;;8.10;1.80;;;8.90;1.00;;;;;;6281970;22;20019;-85
2023/03/13 03:04:45;;;;;;;10.82;2.17;;;8.90;1.00;;;;;;6303574;22;20058;-87
2023/03/13 03:07:38;;;;;;;2.55;1.52;;;8.90;1.00;;;;;;6282486;22;20138;-86
2023/03/13 03:10:30;;;;;;;7.40;2.05;;;8.90;1.00;;;;;;6303105;22;20019;-87
2023/03/13 03:13:17;;;;;;;7.33;1.90;;;8.90;1.00;;;;;;6304289;22;20012;-87
2023/03/13 03:16:06;;;;;;;4.70;1.70;;;9.00;1.00;;;;;;6302322;22;20038;-88
2023/03/13 03:18:55;;;;;;;5.13;1.60;;;9.00;1.00;;;;;;6301931;22;20067;-86
2023/03/13 03:21:43;;;;;;;6.28;1.58;;;9.00;1.00;;;;;;6299297;22;20073;-88
2023/03/13 03:24:30;;;;;;;6.68;1.90;;;9.00;7.40;;;;;;6295859;22;20032;-88
2023/03/13 03:27:17;;;;;;;5.63;1.70;;;9.00;16.20;;;;;;6272961;22;20030;-88
2023/03/13 03:30:05;;;;;;;7.25;2.15;;;9.00;21.50;;;;;;6274541;22;20093;-88
2023/03/13 03:32:52;;;;;;;4.25;1.73;;;9.00;27.60;;;;;;6274255;22;20027;-89
2023/03/13 03:35:39;;;;;;;5.78;1.77;;;9.10;33.10;;;;;;6272190;22;20030;-89
2023/03/13 03:38:29;;;;;;;5.32;1.23;;;9.10;39.60;;;;;;6293010;22;20035;-91
2023/03/13 03:41:18;;;;;;;5.45;1.35;;;9.10;52.90;;;;;;6276600;22;20011;-91
2023/03/13 03:44:05;;;;;;;5.45;1.90;;;9.10;73.00;;;;;;6279843;22;20023;-90
2023/03/13 03:46:53;;;;;;;5.75;1.50;;;9.20;99.00;;;;;;6296184;22;20024;-89
2023/03/13 03:49:40;;;;;;;3.28;1.75;;;9.40;99.90;;;;;;6294495;22;20081;-89
2023/03/13 03:52:27;;;;;;;4.95;1.30;;;9.40;99.90;;;;;;6273402;22;20023;-86
2023/03/13 03:55:19;;;;;;;5.30;1.63;;;9.50;99.90;;;;;;6274660;22;20074;-89
2023/03/13 03:58:06;;;;;;;2.28;1.20;;;9.60;99.90;;;;;;6271645;22;20049;-88
2023/03/13 04:00:56;;;;;;;3.88;1.23;;;9.70;99.90;;;;;;6299973;22;20011;-87
2023/03/13 04:03:44;;;;;;;3.10;1.10;;;9.80;99.90;;;;;;6273753;22;20015;-89
2023/03/13 04:06:31;;;;;;;2.45;1.20;;;9.90;99.90;;;;;;6270872;22;20035;-87
2023/03/13 04:09:19;;;;;;;3.30;1.05;;;10.10;99.90;;;;;;6270517;22;20023;-89
2023/03/13 04:12:07;;;;;;;4.18;1.10;;;10.10;99.90;;;;;;6293413;22;20028;-88
2023/03/13 04:14:58;;;;;;;1.58;1.00;;;10.10;99.90;;;;;;6294171;22;20027;-87
2023/03/13 04:17:45;;;;;;;3.33;1.10;;;10.10;99.90;;;;;;6272282;22;20092;-88
2023/03/13 04:20:32;;;;;;;2.47;1.20;;;10.10;99.90;;;;;;6295430;22;20027;-90
2023/03/13 04:23:19;;;;;;;2.33;1.05;;;10.10;99.90;;;;;;6292299;22;20058;-88
2023/03/13 04:26:09;;;;;;;2.90;1.00;;;10.10;99.90;;;;;;6272969;22;20023;-91
2023/03/13 04:28:56;;;;;;;2.45;1.30;;;10.10;99.90;;;;;;6272343;22;20054;-89
2023/03/13 04:31:43;;;;;;;3.92;1.13;;;10.10;99.90;;;;;;6289741;22;20047;-86
2023/03/13 04:34:31;;;;;;;3.75;1.40;;;10.00;99.90;;;;;;6261493;22;20019;-86
2023/03/13 04:37:20;;;;;;;3.15;1.30;;;10.00;1.00;;;;;;6285483;22;20109;-88
2023/03/13 04:40:09;;;;;;;3.13;1.30;;;10.00;1.00;;;;;;6282556;22;20092;-89
2023/03/13 04:42:57;;;;;;;3.97;1.42;;;10.00;1.00;;;;;;6258541;22;20047;-89
2023/03/13 04:45:45;;;;;;;2.60;1.00;;;10.00;1.00;;;;;;6260174;22;20394;-86
2023/03/13 04:48:33;;;;;;;3.65;1.02;;;10.10;1.00;;;;;;6274440;22;20087;-83
2023/03/13 04:51:20;;;;;;;3.95;1.35;;;10.00;1.00;;;;;;6281758;22;20081;-88
2023/03/13 04:54:08;;;;;;;1.27;1.10;;;10.00;1.00;;;;;;6257514;22;20085;-86
2023/03/13 04:56:55;;;;;;;2.78;1.15;;;10.00;1.00;;;;;;6281212;22;20034;-89
2023/03/13 04:59:43;;;;;;;3.03;1.25;;;9.90;5.10;;;;;;6279842;22;20035;-86
2023/03/13 05:02:39;;;;;;;3.13;1.15;;;9.90;21.20;;;;;;6257829;22;20093;-87
2023/03/13 05:05:29;;;;;;;1.80;0.90;;;9.90;43.00;;;;;;6277708;22;20109;-87
2023/03/13 05:08:16;;;;;;;1.27;0.90;;;9.90;74.00;;;;;;6260336;22;20085;-88
2023/03/13 05:11:04;;;;;;;2.38;1.10;;;10.00;81.60;;;;;;6262578;22;20031;-87
2023/03/13 05:13:51;;;;;;;3.80;0.90;;;10.00;74.00;;;;;;6281173;22;20050;-87
2023/03/13 05:16:39;;;;;;;3.55;1.05;;;10.00;70.50;;;;;;6257903;22;20028;-87
2023/03/13 05:19:26;;;;;;;2.22;0.85;;;10.00;61.10;;;;;;6260130;22;20055;-88
2023/03/13 05:22:14;;;;;;;1.85;0.90;;;10.10;19.90;;;;;;6277221;22;20402;-88
2023/03/13 05:25:03;;;;;;;2.25;1.00;;;10.20;1.00;;;;;;6279999;22;20345;-87
2023/03/13 05:27:51;;;;;;;2.63;1.25;;;10.30;1.00;;;;;;6277690;22;20058;-85
2023/03/13 05:30:38;;;;;;;1.70;1.00;;;10.30;1.00;;;;;;6253035;22;20023;-86
2023/03/13 05:33:26;;;;;;;2.10;1.00;;;10.30;1.00;;;;;;6279486;22;20041;-89
2023/03/13 05:36:14;;;;;;;2.05;1.10;;;10.20;1.00;;;;;;6291587;22;20035;-87
2023/03/13 05:39:01;;;;;;;2.33;0.90;;;10.40;1.00;;;;;;6277346;22;20063;-87
2023/03/13 05:41:49;;;;;;;2.67;1.10;;;10.30;1.00;;;;;;6276684;22;20435;-92
2023/03/13 05:44:42;;;;;;;4.43;1.00;;;10.30;1.00;;;;;;6280191;22;20032;-87
2023/03/13 05:47:29;;;;;;;1.83;1.10;;;10.30;1.00;;;;;;6279338;22;20031;-86
2023/03/13 05:50:16;;;;;;;0.98;0.80;;;10.30;99.90;;;;;;6274617;22;20024;-87
2023/03/13 05:53:03;;;;;;;2.22;0.95;;;10.40;99.90;;;;;;6257817;22;20024;-90
2023/03/13 05:55:51;;;;;;;2.03;0.90;;;10.40;99.90;;;;;;6280481;22;20405;-87
2023/03/13 05:58:38;;;;;;;1.33;0.80;;;10.40;99.90;;;;;;6276101;22;20051;-90
2023/03/13 06:01:25;;;;;;;2.40;0.70;;;10.40;99.90;;;;;;6282418;22;20050;-88
2023/03/13 06:04:13;;;;;;;0.98;0.77;;;10.50;99.90;;;;;;6279675;22;20031;-85
2023/03/13 06:07:03;;;;;;;2.15;0.93;;;10.50;99.90;;;;;;6278037;22;20366;-87
2023/03/13 06:09:50;;;;;;;0.80;0.70;;;10.60;99.90;;;;;;6256512;22;20150;-85
2023/03/13 06:12:39;;;;;;;4.65;0.88;;;10.60;99.90;;;;;;6279367;22;20024;-84
2023/03/13 06:15:29;;;;;;;1.95;1.25;;;10.60;99.90;;;;;;6279312;22;20055;-86
2023/03/13 06:18:16;;;;;;;2.05;0.88;;;10.60;99.90;;;;;;6280080;22;20024;-86
2023/03/13 06:21:03;;;;;;;1.30;0.80;;;10.60;99.90;;;;;;6275948;22;20029;-84
2023/03/13 06:23:53;;;;;;;4.13;0.90;;;10.60;99.90;;;;;;6282973;22;20031;-83
2023/03/13 06:26:43;;;;;;;3.60;1.10;;;10.60;1.00;;;;;;6261502;22;20102;-85
2023/03/13 06:29:30;;;;;;;2.00;0.80;;;10.60;1.00;;;;;;6256356;22;20065;-86
2023/03/13 06:32:17;;;;;;;1.38;0.90;;;10.70;1.00;;;;;;6255796;22;20115;-85
2023/03/13 06:35:05;;;;;;;1.58;1.00;;;10.80;1.00;;;;;;6280840;22;20033;-87
2023/03/13 06:37:58;;;;;;;1.70;0.82;;;10.80;1.00;;;;;;6280475;22;20357;-85
2023/03/13 06:40:47;;;;;;;;;;;10.80;1.00;;;;;;6281488;22;20043;-87
2023/03/13 06:43:35;;;;;;;2.58;0.90;;;10.80;1.00;;;;;;6277033;22;19914;-86
2023/03/13 06:46:24;;;;;;;2.83;1.20;;;10.90;99.90;;;;;;6258015;22;20027;-87
2023/03/13 06:49:12;;;;;;;4.78;1.08;;;10.90;99.90;;;;;;6281025;22;20442;-86
2023/03/13 06:51:59;;;;;;;1.45;1.27;;;10.80;1.00;;;;;;6256443;22;20034;-89
2023/03/13 06:54:46;;;;;;;0.95;0.80;;;10.80;1.00;;;;;;6280580;22;20322;-89
2023/03/13 06:57:34;;;;;;;0.80;0.80;;;10.80;1.00;;;;;;6284366;22;20035;-90
2023/03/13 07:00:24;;;;;;;1.10;0.90;;;10.80;1.00;;;;;;6280429;22;20027;-90
2023/03/13 07:03:11;;;;;;;1.13;1.00;;;10.80;1.00;;;;;;6257967;22;20031;-87
2023/03/13 07:05:59;;;;;;;1.17;0.73;;;10.90;1.00;;;;;;6253052;22;20031;-88
2023/03/13 07:08:46;;;;;;;2.30;0.80;;;10.90;1.00;;;;;;6255958;22;20027;-86
2023/03/13 07:11:33;;;;;;;1.25;1.10;;;10.90;1.00;;;;;;6256278;22;20019;-86
2023/03/13 07:14:21;;;;;;;2.05;0.73;;;10.90;1.00;;;;;;6268502;22;20023;-87
2023/03/13 07:17:09;;;;;;;4.03;0.80;;;10.90;1.00;;;;;;6279045;22;20019;-89
2023/03/13 07:19:57;;;;;;;3.00;0.75;;;11.00;1.00;;;;;;6252609;22;20038;-89
2023/03/13 07:22:51;;;;;;;2.65;0.80;;;11.00;1.00;;;;;;6279576;22;20032;-86
2023/03/13 07:25:38;;;;;;;4.25;0.85;;;11.00;1.00;;;;;;6255777;22;20019;-87
2023/03/13 07:28:30;;;;;;;2.42;1.00;;;11.10;1.00;;;;;;6255547;22;20026;-87
2023/03/13 07:31:20;;;;;;;3.53;1.23;;;11.20;1.00;;;;;;6256284;22;20161;-88
2023/03/13 07:34:08;;;;;;;1.13;0.77;;;11.20;1.00;;;;;;6258458;22;20023;-88
2023/03/13 07:36:57;;;;;;;1.77;0.95;;;11.20;1.00;;;;;;6257714;22;20059;-86
2023/03/13 07:39:45;;;;;;;1.35;1.02;;;11.20;1.00;;;;;;6257264;22;20315;-91
2023/03/13 07:42:33;;;;;;;2.00;1.08;;;11.30;1.00;;;;;;6278708;22;20105;-90
2023/03/13 07:45:25;;;;;;;2.40;0.93;;;11.30;1.00;;;;;;6254396;22;20072;-89
2023/03/13 07:48:12;;;;;;;3.00;0.90;;;11.40;1.00;;;;;;6261567;22;20019;-87
2023/03/13 07:51:04;;;;;;;2.80;1.10;;;11.40;1.00;;;;;;6287123;22;20031;-85
2023/03/13 07:53:52;;;;;;;3.42;0.75;;;11.40;1.00;;;;;;6286608;22;20029;-87
2023/03/13 07:56:39;;;;;;;5.00;1.25;;;11.50;99.90;;;;;;6259329;22;20335;-87
2023/03/13 07:59:29;;;;;;;1.10;1.00;;;11.50;99.90;;;;;;6278857;22;20089;-89
2023/03/13 08:02:17;;;;;;;1.38;1.10;;;11.50;99.90;;;;;;6285957;22;20028;-87
2023/03/13 08:05:05;;;;;;;2.25;1.20;;;11.60;99.90;;;;;;6284421;22;20024;-88
2023/03/13 08:07:56;;;;;;;2.47;1.10;;;11.70;99.90;;;;;;6275586;22;20019;-90
2023/03/13 08:10:44;;;;;;;1.20;0.90;;;11.70;99.90;;;;;;6276794;22;20055;-89
2023/03/13 08:13:34;;;;;;;1.10;1.00;;;11.70;99.90;;;;;;6254314;22;20037;-85
2023/03/13 08:16:27;;;;;;;2.97;1.23;;;11.80;99.90;;;;;;6257157;22;20040;-87
2023/03/13 08:19:15;;;;;;;3.42;1.20;;;12.00;99.90;;;;;;6276450;22;20019;-86
2023/03/13 08:22:02;;;;;;;2.50;0.90;;;12.00;99.90;;;;;;6253719;22;20468;-87
2023/03/13 08:24:50;;;;;;;1.30;1.00;;;12.10;99.90;;;;;;6255180;22;20103;-89
2023/03/13 08:27:43;;;;;;;2.35;1.52;;;12.10;99.90;;;;;;6255704;22;20447;-88
2023/03/13 08:30:30;;;;;;;2.53;0.93;;;12.20;99.90;;;;;;6234055;22;20420;-86
2023/03/13 08:33:20;;;;;;;1.25;0.88;;;12.20;99.90;;;;;;6274524;22;20074;-88
2023/03/13 08:36:18;;;;;;;1.48;1.10;;;12.20;99.90;;;;;;6276969;22;20038;-88
2023/03/13 08:39:14;;;;;;;2.35;0.93;;;12.20;99.90;;;;;;6273879;22;20023;-86
2023/03/13 08:42:04;;;;;;;4.00;1.30;;;12.10;99.90;;;;;;6277220;22;20023;-90
2023/03/13 08:44:51;;;;;;;2.92;1.30;;;12.20;99.90;;;;;;6278916;22;20031;-89
2023/03/13 08:47:39;;;;;;;2.85;1.08;;;12.10;99.90;;;;;;6277512;22;20127;-90
2023/03/13 08:50:28;;;;;;;4.45;1.40;;;12.20;99.90;;;;;;6278110;22;20035;-92
2023/03/13 08:53:15;;;;;;;3.00;1.00;;;12.20;99.90;;;;;;6291321;22;20279;-89
2023/03/13 08:56:03;;;;;;;2.80;1.15;;;12.20;99.90;;;;;;6278053;22;20453;-87
2023/03/13 08:58:58;;;;;;;4.35;1.30;;;12.30;99.90;;;;;;6282779;22;20051;-88
2023/03/13 09:01:46;;;;;;;2.22;1.10;;;12.40;99.90;;;;;;6285981;22;20094;-88
2023/03/13 09:04:37;;;;;;;1.77;0.90;;;12.40;99.90;;;;;;6272143;22;20083;-92
2023/03/13 09:07:24;;;;;;;1.92;1.00;;;12.50;99.90;;;;;;6284415;22;20034;-92
2023/03/13 09:10:12;;;;;;;1.15;1.00;;;12.40;99.90;;;;;;6282089;22;20019;-88
2023/03/13 09:12:59;;;;;;;1.10;1.00;;;12.50;99.90;;;;;;6261179;22;20047;-88
2023/03/13 09:16:15;;;;;;;5.22;1.13;;;12.50;99.90;;;;;;6278179;22;20023;-86
2023/03/13 09:19:03;;;;;;;2.97;1.05;;;12.60;99.90;;;;;;6279763;22;20085;-89
2023/03/13 09:21:53;;;;;;;3.30;1.20;;;12.70;99.90;;;;;;6259376;22;20305;-87
2023/03/13 09:24:42;;;;;;;2.22;1.23;;;12.80;99.90;;;;;;6277492;22;20035;-92
2023/03/13 09:27:29;;;;;;;2.20;1.30;;;12.90;92.70;;;;;;6276556;22;20024;-90
2023/03/13 09:30:17;;;;;;;1.77;0.90;;;12.90;62.80;;;;;;6258994;22;20033;-90
2023/03/13 09:33:08;;;;;;;1.95;0.98;;;13.10;52.10;;;;;;6281352;22;20411;-88
2023/03/13 09:36:00;;;;;;;2.00;1.05;;;13.20;27.40;;;;;;6258677;22;20031;-90
2023/03/13 09:38:49;;;;;;;2.00;1.40;;;13.30;7.90;;;;;;6261869;22;20027;-90
2023/03/13 09:42:17;;;;;;;1.63;1.10;;;13.50;1.00;;;;;;6265791;22;20028;-90
2023/03/13 09:45:14;;;;;;;3.63;1.13;;;14.00;1.00;;;;;;6285010;22;20032;-93
2023/03/13 09:48:26;;;;;;;3.33;1.10;;;14.90;1.00;;;;;;6260410;22;20145;-91
2023/03/13 09:51:35;;;;;;;1.20;1.10;;;15.20;1.00;;;;;;6282076;22;20020;-87
2023/03/13 09:54:49;;;;;;;3.45;1.20;;;15.60;99.90;;;;;;6260252;22;20028;-89
2023/03/13 09:57:43;;;;;;;2.53;1.13;;;15.50;99.90;;;;;;6276987;22;20034;-90
2023/03/13 10:00:37;;;;;;;1.73;1.10;;;15.40;99.90;;;;;;6277966;22;20538;-89
2023/03/13 10:03:32;;;;;;;2.55;1.23;;;15.80;99.90;;;;;;6286320;22;20038;-88
2023/03/13 10:06:23;;;;;;;5.25;1.40;;;15.60;99.90;;;;;;6278455;22;20024;-89
2023/03/13 10:09:19;;;;;;;3.63;1.45;;;15.40;99.90;;;;;;6278071;22;20031;-87
2023/03/13 10:12:20;;;;;;;3.00;1.00;;;15.40;99.90;;;;;;6275848;22;20327;-88
2023/03/13 10:15:29;;;;;;;4.10;1.30;;;15.60;99.90;;;;;;6257462;22;20107;-87
2023/03/13 10:18:23;;;;;;;2.55;1.38;;;15.40;99.90;;;;;;6278786;22;20085;-88
2023/03/13 10:21:20;;;;;;;2.78;1.13;;;15.30;99.90;;;;;;6280547;22;20032;-88
2023/03/13 10:24:28;;;;;;;5.60;1.00;;;15.90;99.90;;;;;;6257826;22;20087;-90
2023/03/13 10:27:22;;;;;;;3.33;1.30;;;16.50;99.90;;;;;;6290343;22;20020;-90
2023/03/13 10:30:25;;;;;;;1.77;1.02;;;16.90;99.90;;;;;;6278799;22;20088;-90
2023/03/13 10:33:25;;;;;;;6.72;1.88;;;17.20;99.90;;;;;;6279926;22;20033;-88
2023/03/13 10:36:15;;;;;;;5.10;1.25;;;18.10;99.90;;;;;;6256003;22;20065;-88
2023/03/13 10:39:20;;;;;;;1.85;0.90;;;17.90;99.90;;;;;;6259764;22;20031;-88
2023/03/13 10:42:25;;;;;;;2.40;1.33;;;17.40;99.90;;;;;;6257439;22;20031;-90
2023/03/13 10:45:19;;;;;;;2.45;1.30;;;17.40;99.90;;;;;;6280425;22;20027;-89
2023/03/13 10:48:14;;;;;;;2.75;1.23;;;17.70;99.90;;;;;;6257096;22;20042;-86
2023/03/13 10:51:02;;;;;;;2.83;1.20;;;18.10;99.90;;;;;;6276214;22;20035;-88
2023/03/13 10:53:52;;;;;;;3.75;1.00;;;19.50;99.90;;;;;;6276419;22;20094;-90
2023/03/13 10:56:40;;;;;;;3.70;1.10;;;19.10;99.90;;;;;;6278270;22;20031;-87
2023/03/13 10:59:27;;;;;;;1.52;1.02;;;18.50;99.90;;;;;;6259515;22;20034;-89
2023/03/13 11:02:26;;;;;;;2.50;1.10;;;18.50;99.90;;;;;;6259122;22;20035;-89
2023/03/13 11:05:27;;;;;;;2.50;1.15;;;19.10;99.90;;;;;;6278041;22;20296;-88
2023/03/13 11:08:27;;;;;;;3.72;1.10;;;19.40;99.90;;;;;;6278699;22;20020;-90
2023/03/13 11:11:18;;;;;;;7.57;1.23;;;19.00;99.90;;;;;;6279705;22;20108;-90
2023/03/13 11:14:14;;;;;;;2.45;0.90;;;19.70;99.90;;;;;;6288163;22;20015;-90
2023/03/13 11:17:28;;;;;;;2.58;1.30;;;19.80;99.90;;;;;;6260018;22;20386;-90
2023/03/13 11:20:29;;;;;;;2.45;1.15;;;19.90;99.90;;;;;;6277686;22;20079;-90
2023/03/13 11:23:33;;;;;;;4.60;1.13;;;19.40;99.90;;;;;;6276085;22;20036;-91
2023/03/13 11:27:08;;;;;;;2.88;1.30;;;19.30;99.90;;;;;;6279752;22;20431;-91
2023/03/13 11:30:01;;;;;;;5.75;1.55;;;19.90;99.90;;;;;;6271536;22;20020;-91
2023/03/13 11:33:04;;;;;;;2.90;1.10;;;20.80;99.90;;;;;;6254663;22;20520;-87
2023/03/13 11:36:16;;;;;;;2.10;1.00;;;21.10;99.90;;;;;;6255811;22;20059;-89
2023/03/13 11:39:31;;;;;;;2.72;1.10;;;21.30;99.90;;;;;;6256422;22;20029;-87
2023/03/13 11:42:34;;;;;;;2.90;1.13;;;20.80;99.90;;;;;;6256316;22;20326;-91
2023/03/13 11:45:57;;;;;;;1.90;0.93;;;20.20;99.90;;;;;;6277258;22;20051;-88
2023/03/13 11:49:06;;;;;;;2.40;1.00;;;20.60;99.90;;;;;;6277109;22;20197;-88
2023/03/13 11:52:03;;;;;;;3.38;0.90;;;20.70;99.90;;;;;;6277228;22;20024;-88
2023/03/13 11:54:57;;;;;;;1.85;0.90;;;20.20;99.90;;;;;;6278930;22;20024;-89
2023/03/13 11:58:02;;;;;;;1.85;0.82;;;19.80;99.90;;;;;;6277505;22;20085;-90
2023/03/13 12:01:23;;;;;;;1.15;0.77;;;19.90;99.90;;;;;;6279865;22;20030;-90
2023/03/13 12:04:33;;;;;;;4.28;1.20;;;20.10;99.90;;;;;;6263660;22;20319;-90
2023/03/13 12:07:41;;;;;;;1.60;1.00;;;20.40;99.90;;;;;;6284825;22;20034;-87
2023/03/13 12:10:45;;;;;;;2.10;1.20;;;20.50;99.90;;;;;;6280174;22;20031;-84
2023/03/13 12:13:37;;;;;;;1.25;0.88;;;20.60;99.90;;;;;;6280636;22;20023;-89
2023/03/13 12:16:50;;;;;;;1.38;0.80;;;20.50;98.00;;;;;;6279305;22;20020;-90
2023/03/13 12:20:07;;;;;;;1.13;0.90;;;20.70;97.00;;;;;;6281534;22;20030;-87
2023/03/13 12:23:17;;;;;;;2.53;0.90;;;21.30;95.90;;;;;;6279040;22;20035;-86
2023/03/13 12:26:15;;;;;;;5.05;0.93;;;21.20;92.80;;;;;;6277120;22;20034;-91
2023/03/13 12:29:17;;;;;;;3.40;0.93;;;21.20;87.60;;;;;;6276739;22;20146;-89
2023/03/13 12:32:43;;;;;;;2.42;0.80;;;21.80;86.00;;;;;;6276826;22;20427;-89
2023/03/13 12:35:39;;;;;;;0.73;0.60;;;22.10;75.90;;;;;;6259543;22;20027;-91
2023/03/13 12:38:32;;;;;;;1.60;0.75;;;21.00;61.80;;;;;;6278192;22;20020;-90
2023/03/13 12:41:25;;;;;;;2.20;0.90;;;20.70;66.80;;;;;;6279193;22;20032;-87
2023/03/13 12:44:19;;;;;;;1.60;0.80;;;21.30;65.70;;;;;;6276166;22;20328;-90
2023/03/13 12:47:30;;;;;;;1.98;0.80;;;20.60;55.00;;;;;;6277976;22;20024;-90
2023/03/13 12:50:30;;;;;;;2.13;0.80;;;20.70;56.40;;;;;;6290635;22;20030;-89
2023/03/13 12:53:41;;;;;;;2.78;0.82;;;21.30;53.80;;;;;;6282081;22;20445;-90
2023/03/13 12:57:11;;;;;;;1.27;0.90;;;21.60;52.30;;;;;;6281058;22;20098;-86
2023/03/13 13:00:04;;;;;;;2.08;0.85;;;21.30;48.70;;;;;;6197679;23;20099;-88
2023/03/13 13:03:16;;;;;;;2.20;0.68;;;21.30;45.40;;;;;;6285187;22;20027;-88
2023/03/13 13:06:15;;;;;;;4.35;0.93;;;21.40;44.90;;;;;;6283995;22;20030;-90
2023/03/13 13:09:13;;;;;;;2.92;1.08;;;22.10;42.60;;;;;;6288647;22;20020;-89
2023/03/13 13:12:19;;;;;;;2.20;0.60;;;21.90;40.30;;;;;;6290695;22;20047;-89
2023/03/13 13:15:24;;;;;;;0.93;0.60;;;21.80;37.00;;;;;;6267141;22;20031;-87
2023/03/13 13:18:23;;;;;;;0.98;0.57;;;21.80;38.30;;;;;;6275413;22;20062;-90
2023/03/13 13:21:28;;;;;;;0.80;0.60;;;21.60;34.30;;;;;;6299699;22;20051;-90
2023/03/13 13:24:50;;;;;;;1.35;0.70;;;21.20;32.90;;;;;;6294772;22;20085;-89
2023/03/13 13:27:37;;;;;;;1.08;0.50;;;21.10;36.40;;;;;;6272707;22;20019;-87
2023/03/13 13:30:25;;;;;;;0.85;0.50;;;21.30;33.40;;;;;;6289409;22;20173;-87
2023/03/13 13:33:20;;;;;;;1.55;0.77;;;20.50;28.40;;;;;;6289380;22;20024;-85
2023/03/13 13:36:22;;;;;;;2.33;0.80;;;20.10;29.60;;;;;;6290524;22;20015;-89
2023/03/13 13:39:27;;;;;;;1.45;0.70;;;20.00;29.60;;;;;;6299465;22;20032;-87
2023/03/13 13:42:30;;;;;;;2.40;1.15;;;19.90;30.20;;;;;;6289705;22;20034;-86
2023/03/13 13:45:24;;;;;;;1.13;0.70;;;19.50;30.00;;;;;;6286767;22;20030;-86
2023/03/13 13:48:27;;;;;;;2.08;0.70;;;19.70;33.40;;;;;;6285754;22;20123;-88
2023/03/13 13:51:18;;;;;;;;;;;20.40;31.40;;;;;;6275849;22;20027;-86
2023/03/13 13:54:17;;;;;;;4.43;1.27;;;20.80;29.40;;;;;;6278264;22;20044;-87
2023/03/13 13:57:17;;;;;;;1.65;1.00;;;21.30;28.50;;;;;;6284266;22;20034;-85
2023/03/13 14:00:25;;;;;;;2.65;0.88;;;21.10;25.30;;;;;;6269876;22;20023;-90
2023/03/13 14:03:29;;;;;;;3.28;0.77;;;20.80;23.30;;;;;;6295762;22;20031;-90
2023/03/13 14:06:22;;;;;;;9.57;4.30;;;20.50;21.70;;;;;;6296069;22;20075;-86
2023/03/13 14:09:22;;;;;;;2.83;0.77;;;20.80;21.70;;;;;;6303778;22;20019;-88
2023/03/13 14:12:33;;;;;;;2.15;0.93;;;20.80;18.90;;;;;;6298676;22;20051;-89
2023/03/13 14:15:31;;;;;;;1.40;0.90;;;20.50;18.00;;;;;;6263021;22;20181;-90
2023/03/13 14:18:24;;;;;;;2.15;1.02;;;20.20;17.30;;;;;;6284225;22;20028;-91
2023/03/13 14:21:13;;;;;;;3.58;0.88;;;20.30;18.50;;;;;;6292183;22;20055;-88
2023/03/13 14:24:03;;;;;;;1.33;0.73;;;20.60;18.00;;;;;;6266206;22;20027;-92
2023/03/13 14:26:51;;;;;;;2.08;0.70;;;21.20;17.00;;;;;;6271508;22;20081;-89
2023/03/13 14:29:38;;;;;;;2.45;0.70;;;22.50;14.80;;;;;;6286067;22;20057;-90
2023/03/13 14:32:25;;;;;;;3.47;1.00;;;22.30;10.40;;;;;;6259545;22;20035;-88
2023/03/13 14:35:16;;;;;;;1.60;0.70;;;22.20;8.90;;;;;;6278750;22;20024;-90
2023/03/13 14:38:05;;;;;;;3.05;0.90;;;22.10;1.00;;;;;;6279761;22;20121;-86
2023/03/13 14:40:54;;;;;;;2.72;1.00;;;22.10;9.60;;;;;;6279247;22;20034;-91
2023/03/13 14:43:41;;;;;;;3.55;0.73;;;22.30;7.90;;;;;;6277228;22;20020;-88
2023/03/13 14:46:40;;;;;;;4.75;1.42;;;22.40;7.00;;;;;;6279662;22;20520;-88
2023/03/13 14:49:32;;;;;;;2.17;0.70;;;22.30;6.40;;;;;;6257488;22;20027;-92
2023/03/13 14:52:23;;;;;;;4.75;0.90;;;23.00;6.70;;;;;;6279666;22;20035;-90
2023/03/13 14:55:22;;;;;;;2.55;0.60;;;22.90;4.60;;;;;;6259072;22;20036;-90
2023/03/13 14:58:26;;;;;;;4.68;1.35;;;22.70;3.10;;;;;;6278591;22;20027;-91
2023/03/13 15:01:24;;;;;;;1.33;0.90;;;21.80;2.10;;;;;;6276122;22;20024;-89
2023/03/13 15:04:12;;;;;;;1.25;0.82;;;22.00;2.90;;;;;;6280450;22;20024;-89
2023/03/13 15:07:05;;;;;;;4.60;0.93;;;22.60;2.20;;;;;;6256309;22;20046;-89